sensor_id;sensor_type;location;lat;lon;timestamp;pressure;altitude;pressure_sealevel;temperature;humidity
75401;BME280;63974;47.538;18.972;2023-02-13T00:00:25;102370.19;;;-0.34;73.82
75401;BME280;63974;47.538;18.972;2023-02-13T00:03:28;102377.19;;;-0.40;73.46
75401;BME280;63974;47.538;18.972;2023-02-13T00:06:31;102379.25;;;-0.51;73.36
75401;BME280;63974;47.538;18.972;2023-02-13T00:09:34;102370.72;;;-0.50;73.14
75401;BME280;63974;47.538;18.972;2023-02-13T00:12:37;102375.03;;;-0.52;72.49
75401;BME280;63974;47.538;18.972;2023-02-13T00:15:39;102370.94;;;-0.58;73.11
75401;BME280;63974;47.538;18.972;2023-02-13T00:18:42;102380.16;;;-0.54;72.67
75401;BME280;63974;47.538;18.972;2023-02-13T00:21:45;102368.19;;;-0.52;72.62
75401;BME280;63974;47.538;18.972;2023-02-13T00:24:48;102376.00;;;-0.56;73.20
75401;BME280;63974;47.538;18.972;2023-02-13T00:27:51;102373.28;;;-0.52;72.96
75401;BME280;63974;47.538;18.972;2023-02-13T00:31:06;102375.28;;;-0.60;72.77
75401;BME280;63974;47.538;18.972;2023-02-13T00:34:09;102383.94;;;-0.65;72.77
75401;BME280;63974;47.538;18.972;2023-02-13T00:37:12;102388.44;;;-0.73;72.80
75401;BME280;63974;47.538;18.972;2023-02-13T00:40:15;102385.59;;;-0.92;72.80
75401;BME280;63974;47.538;18.972;2023-02-13T00:43:17;102387.09;;;-0.85;73.15
75401;BME280;63974;47.538;18.972;2023-02-13T00:46:21;102391.53;;;-0.91;72.75
75401;BME280;63974;47.538;18.972;2023-02-13T00:49:24;102387.47;;;-0.97;72.78
75401;BME280;63974;47.538;18.972;2023-02-13T00:52:27;102388.97;;;-0.91;72.32
75401;BME280;63974;47.538;18.972;2023-02-13T00:55:30;102382.38;;;-0.97;72.33
75401;BME280;63974;47.538;18.972;2023-02-13T00:58:33;102383.16;;;-0.95;72.50
75401;BME280;63974;47.538;18.972;2023-02-13T01:01:36;102382.41;;;-0.98;73.11
75401;BME280;63974;47.538;18.972;2023-02-13T01:04:39;102365.38;;;-0.98;73.04
75401;BME280;63974;47.538;18.972;2023-02-13T01:07:41;102384.56;;;-0.85;73.27
75401;BME280;63974;47.538;18.972;2023-02-13T01:10:46;102377.94;;;-0.90;73.24
75401;BME280;63974;47.538;18.972;2023-02-13T01:13:49;102381.53;;;-0.97;72.36
75401;BME280;63974;47.538;18.972;2023-02-13T01:16:54;102381.19;;;-1.14;72.94
75401;BME280;63974;47.538;18.972;2023-02-13T01:19:57;102378.59;;;-1.13;72.11
75401;BME280;63974;47.538;18.972;2023-02-13T01:23:00;102381.44;;;-1.23;72.08
75401;BME280;63974;47.538;18.972;2023-02-13T01:26:04;102372.06;;;-1.23;72.30
75401;BME280;63974;47.538;18.972;2023-02-13T01:29:10;102373.72;;;-1.20;71.97
75401;BME280;63974;47.538;18.972;2023-02-13T01:32:14;102373.25;;;-1.33;72.10
75401;BME280;63974;47.538;18.972;2023-02-13T01:35:17;102376.84;;;-1.41;72.46
75401;BME280;63974;47.538;18.972;2023-02-13T01:38:20;102372.69;;;-1.44;72.97
75401;BME280;63974;47.538;18.972;2023-02-13T01:41:24;102368.34;;;-1.40;72.79
75401;BME280;63974;47.538;18.972;2023-02-13T01:45:04;102369.06;;;-1.35;72.84
75401;BME280;63974;47.538;18.972;2023-02-13T01:48:16;102357.84;;;-1.30;73.16
75401;BME280;63974;47.538;18.972;2023-02-13T01:51:24;102366.19;;;-1.25;73.87
75401;BME280;63974;47.538;18.972;2023-02-13T01:54:30;102364.59;;;-1.27;73.90
75401;BME280;63974;47.538;18.972;2023-02-13T01:57:37;102362.81;;;-1.25;74.18
75401;BME280;63974;47.538;18.972;2023-02-13T02:00:42;102367.63;;;-1.16;73.21
75401;BME280;63974;47.538;18.972;2023-02-13T02:07:08;102372.63;;;-1.42;72.95
75401;BME280;63974;47.538;18.972;2023-02-13T02:10:17;102380.25;;;-1.41;72.50
75401;BME280;63974;47.538;18.972;2023-02-13T02:13:21;102379.88;;;-1.58;72.45
75401;BME280;63974;47.538;18.972;2023-02-13T02:16:25;102386.88;;;-1.64;72.53
75401;BME280;63974;47.538;18.972;2023-02-13T02:36:28;102372.31;;;-1.61;75.15
75401;BME280;63974;47.538;18.972;2023-02-13T02:49:12;102364.13;;;-1.72;73.22
75401;BME280;63974;47.538;18.972;2023-02-13T02:52:42;102364.22;;;-1.75;72.76
75401;BME280;63974;47.538;18.972;2023-02-13T02:55:54;102372.06;;;-1.82;72.41
75401;BME280;63974;47.538;18.972;2023-02-13T02:59:12;102377.56;;;-1.97;72.74
75401;BME280;63974;47.538;18.972;2023-02-13T03:02:36;102379.63;;;-2.11;73.05
75401;BME280;63974;47.538;18.972;2023-02-13T03:05:59;102378.56;;;-2.04;73.08
75401;BME280;63974;47.538;18.972;2023-02-13T03:09:19;102379.44;;;-2.05;73.31
75401;BME280;63974;47.538;18.972;2023-02-13T03:12:51;102382.19;;;-2.13;73.84
75401;BME280;63974;47.538;18.972;2023-02-13T03:16:19;102371.03;;;-2.09;73.72
75401;BME280;63974;47.538;18.972;2023-02-13T03:34:18;102360.19;;;-1.82;73.39
75401;BME280;63974;47.538;18.972;2023-02-13T03:37:26;102363.97;;;-1.98;73.18
75401;BME280;63974;47.538;18.972;2023-02-13T03:40:53;102360.75;;;-2.04;73.00
75401;BME280;63974;47.538;18.972;2023-02-13T03:47:52;102361.69;;;-2.07;73.02
75401;BME280;63974;47.538;18.972;2023-02-13T03:50:58;102359.19;;;-2.08;72.75
75401;BME280;63974;47.538;18.972;2023-02-13T03:54:05;102355.06;;;-2.12;72.83
75401;BME280;63974;47.538;18.972;2023-02-13T03:57:10;102362.50;;;-2.06;73.06
75401;BME280;63974;47.538;18.972;2023-02-13T04:00:38;102363.38;;;-2.07;72.73
75401;BME280;63974;47.538;18.972;2023-02-13T04:03:51;102360.75;;;-2.04;72.55
75401;BME280;63974;47.538;18.972;2023-02-13T04:10:09;102357.44;;;-2.08;72.90
75401;BME280;63974;47.538;18.972;2023-02-13T04:13:17;102351.50;;;-2.07;73.00
75401;BME280;63974;47.538;18.972;2023-02-13T04:19:27;102359.19;;;-2.08;73.12
75401;BME280;63974;47.538;18.972;2023-02-13T04:22:30;102367.72;;;-2.11;73.38
75401;BME280;63974;47.538;18.972;2023-02-13T04:25:35;102361.81;;;-2.11;73.71
75401;BME280;63974;47.538;18.972;2023-02-13T04:28:39;102370.31;;;-2.12;72.67
75401;BME280;63974;47.538;18.972;2023-02-13T04:31:42;102367.03;;;-2.17;72.57
75401;BME280;63974;47.538;18.972;2023-02-13T04:34:45;102364.50;;;-2.17;72.55
75401;BME280;63974;47.538;18.972;2023-02-13T04:37:47;102364.50;;;-2.17;73.38
75401;BME280;63974;47.538;18.972;2023-02-13T04:40:50;102365.28;;;-2.15;72.79
75401;BME280;63974;47.538;18.972;2023-02-13T04:43:53;102368.78;;;-2.19;73.49
75401;BME280;63974;47.538;18.972;2023-02-13T04:46:56;102364.47;;;-2.16;73.26
75401;BME280;63974;47.538;18.972;2023-02-13T04:49:58;102367.03;;;-2.17;73.49
75401;BME280;63974;47.538;18.972;2023-02-13T04:53:01;102363.78;;;-2.22;73.08
75401;BME280;63974;47.538;18.972;2023-02-13T04:56:04;102358.19;;;-2.36;72.88
75401;BME280;63974;47.538;18.972;2023-02-13T04:59:07;102369.28;;;-2.38;72.57
75401;BME280;63974;47.538;18.972;2023-02-13T05:02:10;102360.09;;;-2.44;73.27
75401;BME280;63974;47.538;18.972;2023-02-13T05:05:13;102372.81;;;-2.45;72.71
75401;BME280;63974;47.538;18.972;2023-02-13T05:08:16;102363.78;;;-2.57;73.11
75401;BME280;63974;47.538;18.972;2023-02-13T05:11:19;102360.69;;;-2.69;73.92
75401;BME280;63974;47.538;18.972;2023-02-13T05:14:21;102361.16;;;-2.54;73.63
75401;BME280;63974;47.538;18.972;2023-02-13T05:17:24;102352.75;;;-2.56;73.39
75401;BME280;63974;47.538;18.972;2023-02-13T05:20:29;102355.41;;;-2.62;73.48
75401;BME280;63974;47.538;18.972;2023-02-13T05:23:32;102354.59;;;-2.62;73.19
75401;BME280;63974;47.538;18.972;2023-02-13T05:26:35;102359.66;;;-2.61;73.81
75401;BME280;63974;47.538;18.972;2023-02-13T05:29:38;102360.44;;;-2.59;73.32
75401;BME280;63974;47.538;18.972;2023-02-13T05:32:41;102358.84;;;-2.63;74.16
75401;BME280;63974;47.538;18.972;2023-02-13T05:35:44;102367.28;;;-2.61;73.34
75401;BME280;63974;47.538;18.972;2023-02-13T05:38:47;102354.56;;;-2.61;73.22
75401;BME280;63974;47.538;18.972;2023-02-13T05:41:50;102358.13;;;-2.69;73.46
75401;BME280;63974;47.538;18.972;2023-02-13T05:44:53;102359.94;;;-2.73;73.77
75401;BME280;63974;47.538;18.972;2023-02-13T05:47:55;102365.66;;;-2.65;73.67
75401;BME280;63974;47.538;18.972;2023-02-13T05:50:58;102362.31;;;-2.65;74.20
75401;BME280;63974;47.538;18.972;2023-02-13T05:54:02;102363.88;;;-2.60;73.97
75401;BME280;63974;47.538;18.972;2023-02-13T05:57:04;102368.22;;;-2.65;74.55
75401;BME280;63974;47.538;18.972;2023-02-13T06:00:07;102370.47;;;-2.53;73.95
75401;BME280;63974;47.538;18.972;2023-02-13T06:03:10;102372.81;;;-2.45;73.37
75401;BME280;63974;47.538;18.972;2023-02-13T06:06:14;102372.09;;;-2.49;72.03
75401;BME280;63974;47.538;18.972;2023-02-13T06:09:17;102377.47;;;-2.61;73.02
75401;BME280;63974;47.538;18.972;2023-02-13T06:12:20;102375.56;;;-2.53;73.20
75401;BME280;63974;47.538;18.972;2023-02-13T06:15:22;102373.59;;;-2.42;72.76
75401;BME280;63974;47.538;18.972;2023-02-13T06:18:25;102380.84;;;-2.27;72.25
75401;BME280;63974;47.538;18.972;2023-02-13T06:21:28;102384.34;;;-2.31;71.92
75401;BME280;63974;47.538;18.972;2023-02-13T06:24:31;102385.13;;;-2.27;72.72
75401;BME280;63974;47.538;18.972;2023-02-13T06:27:34;102391.66;;;-2.17;72.21
75401;BME280;63974;47.538;18.972;2023-02-13T06:30:36;102394.88;;;-2.11;71.46
75401;BME280;63974;47.538;18.972;2023-02-13T06:33:39;102399.81;;;-2.05;72.11
75401;BME280;63974;47.538;18.972;2023-02-13T06:36:42;102395.25;;;-1.93;72.74
75401;BME280;63974;47.538;18.972;2023-02-13T06:39:45;102399.28;;;-1.84;71.24
75401;BME280;63974;47.538;18.972;2023-02-13T06:42:47;102392.97;;;-1.71;70.79
75401;BME280;63974;47.538;18.972;2023-02-13T06:45:50;102395.22;;;-1.61;70.81
75401;BME280;63974;47.538;18.972;2023-02-13T06:48:55;102399.22;;;-1.51;70.99
75401;BME280;63974;47.538;18.972;2023-02-13T06:51:58;102390.47;;;-1.42;70.31
75401;BME280;63974;47.538;18.972;2023-02-13T06:55:01;102389.31;;;-1.31;70.56
75401;BME280;63974;47.538;18.972;2023-02-13T06:58:04;102395.81;;;-1.21;70.34
75401;BME280;63974;47.538;18.972;2023-02-13T07:01:07;102390.41;;;-1.10;69.96
75401;BME280;63974;47.538;18.972;2023-02-13T07:04:10;102389.91;;;-0.94;69.94
75401;BME280;63974;47.538;18.972;2023-02-13T07:07:13;102387.94;;;-0.84;71.37
75401;BME280;63974;47.538;18.972;2023-02-13T07:10:16;102390.75;;;-0.66;72.68
75401;BME280;63974;47.538;18.972;2023-02-13T07:13:18;102396.91;;;-0.45;70.11
75401;BME280;63974;47.538;18.972;2023-02-13T07:16:21;102395.34;;;-0.23;71.26
75401;BME280;63974;47.538;18.972;2023-02-13T07:19:24;102384.88;;;-0.16;70.99
75401;BME280;63974;47.538;18.972;2023-02-13T07:22:30;102392.66;;;0.05;69.68
75401;BME280;63974;47.538;18.972;2023-02-13T07:25:33;102389.69;;;0.17;70.56
75401;BME280;63974;47.538;18.972;2023-02-13T07:28:36;102385.00;;;0.30;70.60
75401;BME280;63974;47.538;18.972;2023-02-13T07:31:40;102388.75;;;0.44;72.45
75401;BME280;63974;47.538;18.972;2023-02-13T07:34:43;102393.28;;;0.61;74.06
75401;BME280;63974;47.538;18.972;2023-02-13T07:38:03;102395.72;;;0.87;72.69
75401;BME280;63974;47.538;18.972;2023-02-13T07:41:06;102399.19;;;1.07;70.93
75401;BME280;63974;47.538;18.972;2023-02-13T07:44:09;102393.44;;;1.24;70.68
75401;BME280;63974;47.538;18.972;2023-02-13T07:47:12;102405.59;;;1.40;72.21
75401;BME280;63974;47.538;18.972;2023-02-13T07:50:15;102400.09;;;1.49;71.85
75401;BME280;63974;47.538;18.972;2023-02-13T07:53:18;102407.16;;;1.64;71.74
75401;BME280;63974;47.538;18.972;2023-02-13T07:56:21;102393.63;;;1.82;70.71
75401;BME280;63974;47.538;18.972;2023-02-13T07:59:24;102397.97;;;2.00;70.94
75401;BME280;63974;47.538;18.972;2023-02-13T08:02:27;102392.91;;;2.18;71.89
75401;BME280;63974;47.538;18.972;2023-02-13T08:05:31;102389.03;;;2.30;71.50
75401;BME280;63974;47.538;18.972;2023-02-13T08:08:35;102375.69;;;2.42;71.39
75401;BME280;63974;47.538;18.972;2023-02-13T08:11:39;102381.78;;;2.58;70.97
75401;BME280;63974;47.538;18.972;2023-02-13T08:14:57;102377.53;;;2.77;71.13
75401;BME280;63974;47.538;18.972;2023-02-13T08:18:00;102386.78;;;2.98;70.35
75401;BME280;63974;47.538;18.972;2023-02-13T08:21:03;102386.25;;;3.10;69.82
75401;BME280;63974;47.538;18.972;2023-02-13T08:24:06;102387.81;;;3.31;69.38
75401;BME280;63974;47.538;18.972;2023-02-13T08:27:13;102385.44;;;3.45;69.75
75401;BME280;63974;47.538;18.972;2023-02-13T08:30:16;102391.56;;;3.59;68.64
75401;BME280;63974;47.538;18.972;2023-02-13T08:33:19;102386.53;;;3.75;67.97
75401;BME280;63974;47.538;18.972;2023-02-13T08:36:23;102388.34;;;3.90;66.96
75401;BME280;63974;47.538;18.972;2023-02-13T08:39:26;102393.63;;;4.04;66.19
75401;BME280;63974;47.538;18.972;2023-02-13T08:42:29;102397.75;;;4.08;65.32
75401;BME280;63974;47.538;18.972;2023-02-13T08:45:33;102397.19;;;4.18;64.85
75401;BME280;63974;47.538;18.972;2023-02-13T08:48:37;102393.03;;;4.32;64.86
75401;BME280;63974;47.538;18.972;2023-02-13T08:51:40;102397.53;;;4.44;63.94
75401;BME280;63974;47.538;18.972;2023-02-13T08:54:44;102392.56;;;4.57;63.93
75401;BME280;63974;47.538;18.972;2023-02-13T08:57:47;102396.91;;;4.72;63.38
75401;BME280;63974;47.538;18.972;2023-02-13T09:00:50;102399.53;;;4.87;62.73
75401;BME280;63974;47.538;18.972;2023-02-13T09:03:54;102396.94;;;4.87;62.67
75401;BME280;63974;47.538;18.972;2023-02-13T09:06:56;102402.03;;;4.89;62.85
75401;BME280;63974;47.538;18.972;2023-02-13T09:09:59;102395.56;;;4.97;63.17
75401;BME280;63974;47.538;18.972;2023-02-13T09:13:02;102405.25;;;5.08;62.43
75401;BME280;63974;47.538;18.972;2023-02-13T09:16:06;102402.94;;;5.19;61.69
75401;BME280;63974;47.538;18.972;2023-02-13T09:19:09;102405.69;;;5.31;61.61
75401;BME280;63974;47.538;18.972;2023-02-13T09:22:12;102397.28;;;5.43;61.19
75401;BME280;63974;47.538;18.972;2023-02-13T09:25:15;102402.09;;;5.49;60.88
75401;BME280;63974;47.538;18.972;2023-02-13T09:28:18;102395.16;;;5.65;61.07
75401;BME280;63974;47.538;18.972;2023-02-13T09:31:21;102397.88;;;5.78;60.61
75401;BME280;63974;47.538;18.972;2023-02-13T09:34:26;102400.53;;;5.92;60.20
75401;BME280;63974;47.538;18.972;2023-02-13T09:37:28;102396.59;;;6.00;60.01
75401;BME280;63974;47.538;18.972;2023-02-13T09:40:38;102394.66;;;6.04;59.61
75401;BME280;63974;47.538;18.972;2023-02-13T09:43:52;102393.88;;;6.17;59.11
75401;BME280;63974;47.538;18.972;2023-02-13T09:46:56;102392.22;;;6.30;58.70
75401;BME280;63974;47.538;18.972;2023-02-13T09:50:06;102399.44;;;6.39;58.09
75401;BME280;63974;47.538;18.972;2023-02-13T09:53:21;102396.75;;;6.68;57.54
75401;BME280;63974;47.538;18.972;2023-02-13T10:03:31;102386.56;;;7.60;54.90
75401;BME280;63974;47.538;18.972;2023-02-13T10:06:41;102381.69;;;7.95;53.78
75401;BME280;63974;47.538;18.972;2023-02-13T10:10:01;102375.47;;;7.97;54.04
75401;BME280;63974;47.538;18.972;2023-02-13T10:23:26;102362.88;;;8.18;53.41
75401;BME280;63974;47.538;18.972;2023-02-13T10:26:33;102360.41;;;8.29;53.64
75401;BME280;63974;47.538;18.972;2023-02-13T10:29:50;102352.63;;;8.04;53.68
75401;BME280;63974;47.538;18.972;2023-02-13T10:36:44;102356.03;;;7.79;55.14
75401;BME280;63974;47.538;18.972;2023-02-13T10:39:50;102343.94;;;8.17;53.77
75401;BME280;63974;47.538;18.972;2023-02-13T10:43:06;102352.81;;;7.76;54.53
75401;BME280;63974;47.538;18.972;2023-02-13T10:46:26;102347.41;;;7.79;55.48
75401;BME280;63974;47.538;18.972;2023-02-13T10:53:27;102347.88;;;8.10;53.53
75401;BME280;63974;47.538;18.972;2023-02-13T10:56:42;102334.81;;;7.87;55.10
75401;BME280;63974;47.538;18.972;2023-02-13T11:00:03;102337.28;;;7.88;55.02
75401;BME280;63974;47.538;18.972;2023-02-13T11:03:17;102339.97;;;7.62;55.64
75401;BME280;63974;47.538;18.972;2023-02-13T11:06:20;102332.97;;;7.89;54.51
75401;BME280;63974;47.538;18.972;2023-02-13T11:09:24;102335.69;;;8.25;54.03
75401;BME280;63974;47.538;18.972;2023-02-13T11:12:31;102346.06;;;7.73;55.51
75401;BME280;63974;47.538;18.972;2023-02-13T11:15:34;102326.25;;;7.47;56.22
75401;BME280;63974;47.538;18.972;2023-02-13T11:18:40;102335.69;;;7.22;56.71
75401;BME280;63974;47.538;18.972;2023-02-13T11:21:47;102323.69;;;7.60;56.16
75401;BME280;63974;47.538;18.972;2023-02-13T11:24:58;102317.53;;;7.75;55.94
75401;BME280;63974;47.538;18.972;2023-02-13T11:28:17;102313.81;;;8.04;55.20
75401;BME280;63974;47.538;18.972;2023-02-13T11:31:24;102320.03;;;8.14;55.46
75401;BME280;63974;47.538;18.972;2023-02-13T11:34:29;102327.72;;;8.40;54.41
75401;BME280;63974;47.538;18.972;2023-02-13T11:37:34;102310.59;;;8.50;53.84
75401;BME280;63974;47.538;18.972;2023-02-13T11:40:37;102323.44;;;8.87;53.41
75401;BME280;63974;47.538;18.972;2023-02-13T11:43:46;102320.25;;;8.11;54.43
75401;BME280;63974;47.538;18.972;2023-02-13T11:46:52;102312.19;;;8.15;55.08
75401;BME280;63974;47.538;18.972;2023-02-13T11:49:55;102309.91;;;8.11;54.84
75401;BME280;63974;47.538;18.972;2023-02-13T11:53:01;102304.69;;;8.61;53.84
75401;BME280;63974;47.538;18.972;2023-02-13T11:59:12;102300.63;;;8.92;52.82
75401;BME280;63974;47.538;18.972;2023-02-13T12:02:30;102301.25;;;8.96;52.83
75401;BME280;63974;47.538;18.972;2023-02-13T12:09:02;102304.06;;;8.57;53.28
75401;BME280;63974;47.538;18.972;2023-02-13T12:12:06;102288.97;;;9.10;51.70
75401;BME280;63974;47.538;18.972;2023-02-13T12:15:30;102291.38;;;9.01;50.58
75401;BME280;63974;47.538;18.972;2023-02-13T12:18:37;102282.63;;;8.91;52.13
75401;BME280;63974;47.538;18.972;2023-02-13T12:31:56;102275.75;;;8.67;52.72
75401;BME280;63974;47.538;18.972;2023-02-13T12:41:31;102260.81;;;8.47;53.45
75401;BME280;63974;47.538;18.972;2023-02-13T12:51:33;102255.06;;;8.90;52.16
75401;BME280;63974;47.538;18.972;2023-02-13T12:54:53;102251.84;;;8.27;53.28
75401;BME280;63974;47.538;18.972;2023-02-13T13:04:27;102246.00;;;8.49;53.86
75401;BME280;63974;47.538;18.972;2023-02-13T13:14:09;102251.19;;;8.36;53.70
75401;BME280;63974;47.538;18.972;2023-02-13T13:20:52;102241.16;;;8.32;53.36
75401;BME280;63974;47.538;18.972;2023-02-13T13:24:20;102241.06;;;8.33;53.69
75401;BME280;63974;47.538;18.972;2023-02-13T13:27:29;102228.72;;;8.37;54.24
75401;BME280;63974;47.538;18.972;2023-02-13T13:30:34;102231.47;;;8.59;53.93
75401;BME280;63974;47.538;18.972;2023-02-13T13:33:42;102237.69;;;8.56;53.73
75401;BME280;63974;47.538;18.972;2023-02-13T13:40:14;102233.91;;;8.37;54.47
75401;BME280;63974;47.538;18.972;2023-02-13T13:46:58;102231.63;;;8.32;55.01
75401;BME280;63974;47.538;18.972;2023-02-13T13:50:04;102226.38;;;8.21;55.07
75401;BME280;63974;47.538;18.972;2023-02-13T13:53:16;102217.97;;;8.18;55.21
75401;BME280;63974;47.538;18.972;2023-02-13T13:56:25;102225.31;;;8.36;54.33
75401;BME280;63974;47.538;18.972;2023-02-13T14:02:48;102222.94;;;8.33;54.06
75401;BME280;63974;47.538;18.972;2023-02-13T14:06:11;102219.75;;;8.17;54.64
75401;BME280;63974;47.538;18.972;2023-02-13T14:18:36;102208.19;;;8.23;53.74
75401;BME280;63974;47.538;18.972;2023-02-13T14:21:40;102205.91;;;8.18;54.05
75401;BME280;63974;47.538;18.972;2023-02-13T14:24:54;102208.25;;;8.09;54.21
75401;BME280;63974;47.538;18.972;2023-02-13T14:28:02;102197.84;;;7.98;54.42
75401;BME280;63974;47.538;18.972;2023-02-13T14:31:13;102205.56;;;8.10;54.23
75401;BME280;63974;47.538;18.972;2023-02-13T14:34:22;102211.38;;;8.01;54.45
75401;BME280;63974;47.538;18.972;2023-02-13T14:37:36;102198.84;;;8.08;54.11
75401;BME280;63974;47.538;18.972;2023-02-13T14:40:51;102196.66;;;8.14;54.15
75401;BME280;63974;47.538;18.972;2023-02-13T14:43:55;102199.78;;;8.07;54.05
75401;BME280;63974;47.538;18.972;2023-02-13T14:47:02;102201.88;;;8.02;53.79
75401;BME280;63974;47.538;18.972;2023-02-13T14:50:06;102199.19;;;7.91;54.33
75401;BME280;63974;47.538;18.972;2023-02-13T14:53:25;102205.19;;;7.91;54.48
75401;BME280;63974;47.538;18.972;2023-02-13T14:56:30;102204.56;;;7.88;54.66
75401;BME280;63974;47.538;18.972;2023-02-13T14:59:35;102201.69;;;7.80;54.79
75401;BME280;63974;47.538;18.972;2023-02-13T15:02:45;102198.47;;;7.76;54.15
75401;BME280;63974;47.538;18.972;2023-02-13T15:05:56;102203.63;;;7.76;54.38
75401;BME280;63974;47.538;18.972;2023-02-13T15:09:03;102204.16;;;7.69;55.07
75401;BME280;63974;47.538;18.972;2023-02-13T15:12:27;102212.88;;;7.55;55.30
75401;BME280;63974;47.538;18.972;2023-02-13T15:15:35;102200.13;;;7.52;54.77
75401;BME280;63974;47.538;18.972;2023-02-13T15:18:41;102199.09;;;7.55;54.80
75401;BME280;63974;47.538;18.972;2023-02-13T15:21:54;102203.94;;;7.47;56.07
75401;BME280;63974;47.538;18.972;2023-02-13T15:24:58;102206.31;;;7.37;56.30
75401;BME280;63974;47.538;18.972;2023-02-13T15:28:03;102206.41;;;7.36;56.54
75401;BME280;63974;47.538;18.972;2023-02-13T15:31:21;102207.13;;;7.25;56.96
75401;BME280;63974;47.538;18.972;2023-02-13T15:34:30;102191.63;;;7.13;57.98
75401;BME280;63974;47.538;18.972;2023-02-13T15:37:35;102193.97;;;7.03;58.07
75401;BME280;63974;47.538;18.972;2023-02-13T15:40:40;102199.53;;;6.97;57.99
75401;BME280;63974;47.538;18.972;2023-02-13T15:43:45;102195.69;;;6.90;57.70
75401;BME280;63974;47.538;18.972;2023-02-13T15:46:50;102207.38;;;6.96;57.31
75401;BME280;63974;47.538;18.972;2023-02-13T15:49:55;102202.22;;;6.96;56.92
75401;BME280;63974;47.538;18.972;2023-02-13T15:53:00;102215.41;;;6.91;56.34
75401;BME280;63974;47.538;18.972;2023-02-13T15:56:04;102206.84;;;6.91;56.94
75401;BME280;63974;47.538;18.972;2023-02-13T15:59:09;102224.38;;;6.86;56.82
75401;BME280;63974;47.538;18.972;2023-02-13T16:02:18;102220.00;;;6.74;57.68
75401;BME280;63974;47.538;18.972;2023-02-13T16:05:24;102224.84;;;6.66;58.35
75401;BME280;63974;47.538;18.972;2023-02-13T16:08:51;102232.03;;;6.61;58.24
75401;BME280;63974;47.538;18.972;2023-02-13T16:11:58;102230.09;;;6.64;57.69
75401;BME280;63974;47.538;18.972;2023-02-13T16:15:03;102235.44;;;6.61;58.23
75401;BME280;63974;47.538;18.972;2023-02-13T16:18:17;102238.59;;;6.53;58.95
75401;BME280;63974;47.538;18.972;2023-02-13T16:21:22;102235.97;;;6.40;59.56
75401;BME280;63974;47.538;18.972;2023-02-13T16:24:27;102235.53;;;6.34;59.75
75401;BME280;63974;47.538;18.972;2023-02-13T16:27:32;102222.63;;;6.20;60.15
75401;BME280;63974;47.538;18.972;2023-02-13T16:30:40;102246.66;;;6.20;60.45
75401;BME280;63974;47.538;18.972;2023-02-13T16:33:44;102243.56;;;6.15;60.67
75401;BME280;63974;47.538;18.972;2023-02-13T16:36:47;102243.84;;;6.11;60.56
75401;BME280;63974;47.538;18.972;2023-02-13T16:39:49;102229.84;;;6.01;60.67
75401;BME280;63974;47.538;18.972;2023-02-13T16:46:37;102241.78;;;6.16;59.17
75401;BME280;63974;47.538;18.972;2023-02-13T16:49:41;102234.34;;;6.11;59.03
75401;BME280;63974;47.538;18.972;2023-02-13T16:52:44;102238.00;;;6.35;57.14
75401;BME280;63974;47.538;18.972;2023-02-13T16:55:56;102237.25;;;6.33;57.94
75401;BME280;63974;47.538;18.972;2023-02-13T16:59:23;102241.50;;;6.20;58.64
75401;BME280;63974;47.538;18.972;2023-02-13T17:02:35;102236.81;;;6.13;58.99
75401;BME280;63974;47.538;18.972;2023-02-13T17:05:39;102239.03;;;6.05;59.43
75401;BME280;63974;47.538;18.972;2023-02-13T17:08:42;102237.84;;;5.96;59.83
75401;BME280;63974;47.538;18.972;2023-02-13T17:11:49;102246.56;;;5.94;59.79
75401;BME280;63974;47.538;18.972;2023-02-13T17:14:55;102243.38;;;5.90;59.96
75401;BME280;63974;47.538;18.972;2023-02-13T17:17:58;102249.34;;;5.91;60.09
75401;BME280;63974;47.538;18.972;2023-02-13T17:21:01;102241.88;;;5.86;60.14
75401;BME280;63974;47.538;18.972;2023-02-13T17:24:05;102245.78;;;5.93;59.50
75401;BME280;63974;47.538;18.972;2023-02-13T17:27:10;102245.19;;;5.88;60.06
75401;BME280;63974;47.538;18.972;2023-02-13T17:30:32;102249.28;;;5.92;59.75
75401;BME280;63974;47.538;18.972;2023-02-13T17:33:35;102250.06;;;5.93;59.28
75401;BME280;63974;47.538;18.972;2023-02-13T17:36:39;102228.00;;;5.89;59.20
75401;BME280;63974;47.538;18.972;2023-02-13T17:39:43;102243.19;;;5.93;59.00
75401;BME280;63974;47.538;18.972;2023-02-13T17:42:49;102242.72;;;5.87;59.66
75401;BME280;63974;47.538;18.972;2023-02-13T17:45:53;102234.41;;;5.82;59.87
75401;BME280;63974;47.538;18.972;2023-02-13T17:48:56;102239.81;;;5.77;60.14
75401;BME280;63974;47.538;18.972;2023-02-13T17:51:59;102237.63;;;5.71;60.64
75401;BME280;63974;47.538;18.972;2023-02-13T17:55:06;102229.69;;;5.74;60.18
75401;BME280;63974;47.538;18.972;2023-02-13T17:58:16;102238.16;;;5.76;60.02
75401;BME280;63974;47.538;18.972;2023-02-13T18:01:19;102237.22;;;5.77;59.87
75401;BME280;63974;47.538;18.972;2023-02-13T18:04:21;102233.84;;;5.77;60.31
75401;BME280;63974;47.538;18.972;2023-02-13T18:07:25;102237.69;;;5.70;61.23
75401;BME280;63974;47.538;18.972;2023-02-13T18:10:30;102232.19;;;5.62;61.62
75401;BME280;63974;47.538;18.972;2023-02-13T18:13:34;102231.00;;;5.67;62.35
75401;BME280;63974;47.538;18.972;2023-02-13T18:16:37;102223.81;;;5.72;62.22
75401;BME280;63974;47.538;18.972;2023-02-13T18:19:40;102235.56;;;5.62;62.55
75401;BME280;63974;47.538;18.972;2023-02-13T18:22:43;102227.94;;;5.61;62.64
75401;BME280;63974;47.538;18.972;2023-02-13T18:25:46;102223.78;;;5.58;62.93
75401;BME280;63974;47.538;18.972;2023-02-13T18:28:49;102224.91;;;5.54;63.29
75401;BME280;63974;47.538;18.972;2023-02-13T18:31:54;102216.41;;;5.52;63.82
75401;BME280;63974;47.538;18.972;2023-02-13T18:34:58;102216.59;;;5.49;64.14
75401;BME280;63974;47.538;18.972;2023-02-13T18:38:01;102220.09;;;5.48;64.59